Terminal Aerodrome Forecast
Issued by NWS Medford, OR

Home | Current Version | Previous Version | Text Only | Print | Product List | Glossary On
Versions: 1 2 3 4 5 6 7 8 9 10 11 12 13 14 15 16
477
FTUS46 KMFR 161720
TAFMFR
TAF
KMFR 161720Z 1618/1718 VRB03KT P6SM BKN250
     FM170400 VRB03KT P6SM BKN100 OVC250
     FM171000 00000KT 1/2SM FG VV002=

USA.gov is the U.S. government's official web portal to all federal, state and local government web resources and services.